Muzambinho, Brazil
Current Conditions -  °F | °C
As of 2:00 PM on Thursday 27 Nov 2014 (Local Time) from SBPC Reporting Station
Broken Clouds Broken Clouds  
Wind Chill: 81°   Ceiling: 1800
Heat Index: 85°   Visibility: 6mi
Dew Point: 72°   Wind: 7mph
Humidity: 74%   Direction: 20°NNE
Pressure: 30.03"   Gusts: NA
Location:  21.38°S, 46.53°W
Report Text: SBPC 271600Z 02006KT 9999 BKN018 27/22 Q1017
Loading
Personal Weather Stations






























Interactive Weather Map New forecast layout! Learn more

10-Day Weather Forecast

Advertisements
Track Severe Weather on mobile